ADDS METAR Data INFO
IDs: Format: Raw Decoded Include TAF

Data at: 0403 UTC 11 Dec 2017

PAFA 110353Z 02004KT 10SM BKN250 M08/M09 A2958 RMK AO2 SLP028 T10781089 $
PAFA 110253Z 05004KT 10SM SCT200 M08/M09 A2960 RMK AO2 SLP034 T10781089 58021 $
PAFA 110153Z 01003KT 10SM FEW110 SCT150 M09/M10 A2963 RMK AO2 SLP046 T10891100 $
PAFA 110053Z 36003KT 10SM FEW110 SCT150 M09/M11 A2966 RMK AO2 SLP055 T10891111 $
PAFA 102353Z 05004KT 10SM FEW110 SCT150 M07/M09 A2966 RMK AO2 SLP055 T10721089 11061 21117 50007 $
PAFA 102253Z 35003KT 10SM SCT110 BKN150 M07/M08 A2966 RMK AO2 SLP057 T10721083 $
PAFA 102153Z 00000KT 10SM SCT110 BKN150 M08/M10 A2966 RMK AO2 SLP058 T10831100 $
PAFA 102053Z 00000KT 10SM SCT110 BKN150 M08/M11 A2964 RMK AO2 SLP048 T10831106 51017 $
PAFA 101953Z 00000KT 10SM SCT130 BKN150 M08/M11 A2963 RMK AO2 SLP044 T10831106 $
PAFA 101853Z COR 00000KT 10SM BKN140 M11/M12 A2961 RMK AO2 SLP040 T11061122 $
PAFA 101753Z 18003KT 10SM SCT120 M10/M12 A2959 RMK AO2 SLP032 T11001117 11089 21128 53020 $
PAFA 101653Z 07003KT 10SM SCT120 M11/M12 A2955 RMK AO2 SLP020 T11061122 $
PAFA 101553Z 00000KT 10SM FEW120 M09/M11 A2954 RMK AO2 SLP014 T10941111 $
PAFA 101453Z 27004KT 10SM FEW120 M10/M12 A2953 RMK AO2 SLP012 T11001117 53002 $
PAFA 101353Z COR 17005KT 10SM FEW120 M11/M13 A2953 RMK AO2 SLP012 T11061128 $
PAFA 101253Z 28003KT 10SM FEW120 M10/M12 A2951 RMK AO2 SLP007 T11001117 $
PAFA 101153Z COR 00000KT 10SM FEW120 M13/M14 A2952 RMK AO2 SLP010 T11281144 11111 21144 58010 $
PAFA 101053Z 03005KT 10SM FEW047 SCT120 M12/M14 A2953 RMK AO2 PRESFR SLP011 I1000 T11221144 $
PAFA 100953Z 00000KT 10SM FEW047 SCT100 M14/M16 A2955 RMK AO2 SLP019 T11391156 $
PAFA 100853Z 04004KT 10SM FEW100 BKN200 M14/M16 A2955 RMK AO2 SLP019 T11391156 410501144 56005 $
PAFA 100753Z 28003KT 10SM FEW100 BKN200 M13/M16 A2956 RMK AO2 SLP021 T11331156 $
PAFA 100653Z COR 00000KT 10SM FEW002 FEW100 SCT200 M14/M16 A2956 RMK AO2 SLP021 T11391156 $
PAFA 100553Z 02003KT 10SM FEW002 M13/M14 A2957 RMK AO2 SLP024 T11281144 11111 21144 56021 $
PAFA 100453Z 00000KT 10SM FEW002 M13/M14 A2959 RMK AO2 SLP030 T11281144 $
PAFA 100353Z 34005KT 10SM SCT002 SCT050 M13/M14 A2961 RMK AO2 SLP037 T11281144 $
PAFA 100253Z 00000KT 10SM FEW002 FEW050 SCT150 M14/M16 A2963 RMK AO2 SLP045 T11391161 56022 $
PAFA 100153Z COR 00000KT 10SM SCT002 SCT060 BKN150 M14/M16 A2965 RMK AO2 SLP053 T11391156 $
PAFA 100053Z 00000KT 10SM BCFG FEW002 FEW060 FEW150 M12/M14 A2967 RMK AO2 SLP059 T11221139 $
PAFA 092353Z 00000KT 10SM BCFG FEW002 FEW060 FEW150 M12/M13 A2970 RMK AO2 SLP067 VIS S 1 T11171133 11061 21122 58022 $
PAFA 092253Z 00000KT 10SM BCFG FEW002 FEW060 SCT150 M10/M12 A2973 RMK AO2 SLP077 VIS E-SE 1 T11001117 $
PAFA 092153Z 08004KT 10SM BCFG FEW002 FEW060 SCT150 M09/M11 A2973 RMK AO2 SLP080 VIS E-SE 1 I1001 T10941111 $
PAFA 092141Z 05005KT 10SM BCFG FEW002 FEW060 SCT150 M09/M11 A2973 RMK AO2 VIS NE-SE 1 I1001 T10941111 $
PAFA 092130Z 04006KT 1/2SM R02L/1200VP6000FT FZFG VV002 M08/M09 A2974 RMK AO2 TWR VIS 1 I1001 T10831094 $
PAFA 092118Z 02007KT 1/4SM R02L/1000V1200FT FZFG VV002 M08/M09 A2975 RMK AO2 SFC VIS 1/2 I1001 T10781089 $
PAFA 092109Z 03006KT 1/2SM R02L/1200V1800FT FZFG VV002 M08/M09 A2975 RMK AO2 I1000 T10781089 $
PAFA 092053Z 02004KT 1/2SM R02L/1800V4500FT BR VV002 M07/M08 A2976 RMK AO2 SFC VIS 3/4 SLP089 I3002 T10721083 56013 $
PAFA 091953Z 07003KT 1/2SM R02L/3500VP6000FT BR OVC003 M07/M08 A2977 RMK AO2 SFC VIS 3/4 SLP092 I1001 T10671078 $
PAFA 091853Z 01006KT 1/2SM R02L/6000VP6000FT BR OVC003 M06/M07 A2978 RMK AO2 SFC VIS 1 1/4 SLP095 I1001 T10611072 $
PAFA 091753Z 04005KT 3/4SM R02L/5000VP6000FT BR OVC002 M06/M07 A2980 RMK AO2 SLP101 I1003 I6008 T10611067 11056 21061 58001 $
PAFA 091734Z 05004KT 1/2SM R02L/2600V3500FT FZFG VV002 M06/M07 A2980 RMK AO2 TWR VIS 3/4 I1002 T10561067 $
PAFA 091653Z 00000KT 1/4SM R02L/2800V3500FT FZFG VV002 M06/M07 A2981 RMK AO2 SLP103 I1002 T10561067 $